createdAt,value
2023-02-17T00:01:41.177Z,49.53
2023-02-17T00:04:09.890Z,46.50
2023-02-17T00:06:40.145Z,44.63
2023-02-17T00:09:08.623Z,48.27
2023-02-17T00:11:37.197Z,45.33
2023-02-17T00:14:06.005Z,52.40
2023-02-17T00:16:34.874Z,47.27
2023-02-17T00:19:24.866Z,47.00
2023-02-17T00:21:57.739Z,50.00
2023-02-17T00:24:28.853Z,46.20
2023-02-17T00:26:57.800Z,43.77
2023-02-17T00:29:26.945Z,52.20
2023-02-17T00:31:57.291Z,51.20
2023-02-17T00:34:27.920Z,54.97
2023-02-17T00:36:58.109Z,48.90
2023-02-17T00:39:28.314Z,50.80
2023-02-17T00:41:56.871Z,57.73
2023-02-17T00:44:26.671Z,46.93
2023-02-17T00:46:55.322Z,50.23
2023-02-17T00:49:27.300Z,50.40
2023-02-17T00:52:01.787Z,57.80
2023-02-17T00:54:31.065Z,52.83
2023-02-17T00:56:59.916Z,59.00
2023-02-17T00:59:28.639Z,51.33
2023-02-17T01:01:57.453Z,52.93
2023-02-17T01:04:26.024Z,54.23
2023-02-17T01:06:54.685Z,67.00
2023-02-17T01:09:26.810Z,56.83
2023-02-17T01:11:55.445Z,57.33
2023-02-17T01:14:24.248Z,53.43
2023-02-17T01:16:53.344Z,51.57
2023-02-17T01:19:22.519Z,61.53
2023-02-17T01:21:51.220Z,55.10
2023-02-17T01:24:19.838Z,58.70
2023-02-17T01:26:49.890Z,62.50
2023-02-17T01:29:18.627Z,54.90
2023-02-17T01:31:47.286Z,59.20
2023-02-17T01:34:15.859Z,73.13
2023-02-17T01:36:44.618Z,62.80
2023-02-17T01:39:15.637Z,52.20
2023-02-17T01:41:45.369Z,57.53
2023-02-17T01:44:20.548Z,48.43
2023-02-17T01:46:52.126Z,66.67
2023-02-17T01:49:34.299Z,56.50
2023-02-17T01:52:14.861Z,61.00
2023-02-17T01:54:48.057Z,59.37
2023-02-17T01:57:22.577Z,56.93
2023-02-17T01:59:53.710Z,61.60
2023-02-17T02:02:23.366Z,58.07
2023-02-17T02:04:55.106Z,62.03
2023-02-17T02:07:31.625Z,62.63
2023-02-17T02:10:01.531Z,60.63
2023-02-17T02:12:34.760Z,71.00
2023-02-17T02:15:10.688Z,56.57
2023-02-17T02:18:02.505Z,73.47
2023-02-17T02:21:40.058Z,61.20
2023-02-17T02:24:29.492Z,57.40
2023-02-17T02:27:40.697Z,66.00
2023-02-17T02:30:53.775Z,64.47
2023-02-17T02:33:33.632Z,57.60
2023-02-17T02:36:12.682Z,66.40
2023-02-17T02:38:48.290Z,67.80
2023-02-17T02:41:23.079Z,62.80
2023-02-17T02:43:54.064Z,74.20
2023-02-17T02:46:22.739Z,61.57
2023-02-17T02:48:53.818Z,71.67
2023-02-17T02:51:41.812Z,68.70
2023-02-17T02:54:43.046Z,63.33
2023-02-17T02:57:35.942Z,70.37
2023-02-17T03:00:21.375Z,72.30
2023-02-17T03:02:58.064Z,72.93
2023-02-17T03:05:41.429Z,69.40
2023-02-17T03:08:16.704Z,70.30
2023-02-17T03:10:49.376Z,71.43
2023-02-17T03:13:19.357Z,59.67
2023-02-17T03:15:49.559Z,64.03
2023-02-17T03:18:18.802Z,75.40
2023-02-17T03:20:55.694Z,66.10
2023-02-17T03:23:24.337Z,64.63
2023-02-17T03:25:53.040Z,66.77
2023-02-17T03:28:21.942Z,74.17
2023-02-17T03:30:50.562Z,69.73
2023-02-17T03:33:19.225Z,73.50
2023-02-17T03:35:51.226Z,60.27
2023-02-17T03:38:20.139Z,72.20
2023-02-17T03:40:48.783Z,77.00
2023-02-17T03:43:18.243Z,72.30
2023-02-17T03:45:46.871Z,63.57
2023-02-17T03:48:15.565Z,81.00
2023-02-17T03:50:44.212Z,71.73
2023-02-17T03:53:14.338Z,63.53
2023-02-17T03:55:42.997Z,77.53
2023-02-17T03:58:12.103Z,71.00
2023-02-17T04:00:40.704Z,67.03
2023-02-17T04:03:09.327Z,80.80
2023-02-17T04:05:38.309Z,72.40
2023-02-17T04:08:07.164Z,66.17
2023-02-17T04:10:37.424Z,72.60
2023-02-17T04:13:06.398Z,80.53
2023-02-17T04:15:35.203Z,75.13
2023-02-17T04:18:03.956Z,67.60
2023-02-17T04:20:32.709Z,72.87
2023-02-17T04:23:01.568Z,70.67
2023-02-17T04:25:30.194Z,68.13
2023-02-17T04:28:00.105Z,74.40
2023-02-17T04:30:29.113Z,78.57
2023-02-17T04:32:57.797Z,73.87
2023-02-17T04:35:27.183Z,77.00
2023-02-17T04:37:56.308Z,67.70
2023-02-17T04:40:25.019Z,75.13
2023-02-17T04:42:53.585Z,77.93
2023-02-17T04:45:24.797Z,86.97
2023-02-17T04:47:53.858Z,60.30
2023-02-17T04:50:23.741Z,78.97
2023-02-17T04:52:52.944Z,72.33
2023-02-17T04:55:21.911Z,66.87
2023-02-17T04:57:50.525Z,75.07
2023-02-17T05:00:20.137Z,69.20
2023-02-17T05:02:50.314Z,71.00
2023-02-17T05:05:20.927Z,69.83
2023-02-17T05:07:49.793Z,69.03
2023-02-17T05:10:20.039Z,76.53
2023-02-17T05:12:48.656Z,66.20
2023-02-17T05:15:17.341Z,75.03
2023-02-17T05:17:46.073Z,63.80
2023-02-17T05:20:16.119Z,70.90
2023-02-17T05:22:44.869Z,67.90
2023-02-17T05:25:13.453Z,78.80
2023-02-17T05:27:42.266Z,86.93
2023-02-17T05:30:11.838Z,72.57
2023-02-17T05:32:40.566Z,67.00
2023-02-17T05:35:10.421Z,75.97
2023-02-17T05:37:40.731Z,71.97
2023-02-17T05:40:10.270Z,82.77
2023-02-17T05:42:39.153Z,66.50
2023-02-17T05:45:08.624Z,72.90
2023-02-17T05:47:37.461Z,73.90
2023-02-17T05:50:07.943Z,70.50
2023-02-17T05:52:36.879Z,80.20
2023-02-17T05:55:08.197Z,69.33
2023-02-17T05:57:36.927Z,79.83
2023-02-17T06:00:07.373Z,67.63
2023-02-17T06:02:40.935Z,78.67
2023-02-17T06:05:11.129Z,76.33
2023-02-17T06:07:40.080Z,79.40
2023-02-17T06:10:11.660Z,81.10
2023-02-17T06:12:40.519Z,79.17
2023-02-17T06:15:09.761Z,78.67
2023-02-17T06:17:38.726Z,67.23
2023-02-17T06:20:09.323Z,71.77
2023-02-17T06:22:38.245Z,74.27
2023-02-17T06:25:11.515Z,65.10
2023-02-17T06:27:40.224Z,68.90
2023-02-17T06:30:10.867Z,81.03
2023-02-17T06:32:39.683Z,71.00
2023-02-17T06:35:09.053Z,80.03
2023-02-17T06:37:37.613Z,68.60
2023-02-17T06:40:08.410Z,67.17
2023-02-17T06:42:38.427Z,58.87
2023-02-17T06:45:08.158Z,61.67
2023-02-17T06:47:37.236Z,62.47
2023-02-17T06:50:07.701Z,68.37
2023-02-17T06:52:36.643Z,59.40
2023-02-17T06:55:06.445Z,72.47
2023-02-17T06:57:35.114Z,75.63
2023-02-17T07:00:07.242Z,64.97
2023-02-17T07:02:38.924Z,66.47
2023-02-17T07:05:09.789Z,64.03
2023-02-17T07:07:39.213Z,70.07
2023-02-17T07:10:09.664Z,69.10
2023-02-17T07:12:38.609Z,68.07
2023-02-17T07:15:12.394Z,66.80
2023-02-17T07:17:41.362Z,67.33
2023-02-17T07:20:11.599Z,58.40
2023-02-17T07:22:40.628Z,66.10
2023-02-17T07:25:10.181Z,64.40
2023-02-17T07:27:38.948Z,70.80
2023-02-17T07:30:10.748Z,52.27
2023-02-17T07:32:39.741Z,56.93
2023-02-17T07:35:08.866Z,61.67
2023-02-17T07:37:37.634Z,61.20
2023-02-17T07:40:08.514Z,56.93
2023-02-17T07:42:37.143Z,51.70
2023-02-17T07:45:08.475Z,61.53
2023-02-17T07:47:37.238Z,50.50
2023-02-17T07:50:07.387Z,54.70
2023-02-17T07:52:36.085Z,55.63
2023-02-17T07:55:05.856Z,48.10
2023-02-17T07:57:34.552Z,48.30
2023-02-17T08:00:03.669Z,43.60
2023-02-17T08:02:42.692Z,47.77
2023-02-17T08:05:11.437Z,45.80
2023-02-17T08:07:40.121Z,50.13
2023-02-17T08:10:29.972Z,46.70
2023-02-17T08:13:16.302Z,46.30
2023-02-17T08:15:45.224Z,46.47
2023-02-17T08:18:15.448Z,43.60
2023-02-17T08:20:44.486Z,49.77
2023-02-17T08:23:13.180Z,42.07
2023-02-17T08:25:42.018Z,48.83
2023-02-17T08:28:14.081Z,40.33
2023-02-17T08:30:42.986Z,40.70
2023-02-17T08:33:11.753Z,42.67
2023-02-17T08:35:43.673Z,41.17
2023-02-17T08:38:12.577Z,40.60
2023-02-17T08:40:41.342Z,34.37
2023-02-17T08:43:10.464Z,35.40
2023-02-17T08:45:39.606Z,36.20
2023-02-17T08:48:08.536Z,33.80
2023-02-17T08:50:37.227Z,32.50
2023-02-17T08:53:07.389Z,33.83
2023-02-17T08:55:48.690Z,36.30
2023-02-17T08:58:18.065Z,39.80
2023-02-17T09:00:46.919Z,33.87
2023-02-17T09:03:16.528Z,32.40
2023-02-17T09:05:45.197Z,38.37
2023-02-17T09:08:15.366Z,33.07
2023-02-17T09:10:44.171Z,33.83
2023-02-17T09:13:12.960Z,36.53
2023-02-17T09:15:41.690Z,32.83
2023-02-17T09:18:10.761Z,34.67
2023-02-17T09:20:40.342Z,39.50
2023-02-17T09:23:09.382Z,31.90
2023-02-17T09:25:40.585Z,37.60
2023-02-17T09:28:09.851Z,30.70
2023-02-17T09:30:38.846Z,38.40
2023-02-17T09:33:08.033Z,30.37
2023-02-17T09:35:39.131Z,32.20
2023-02-17T09:38:10.292Z,35.43
2023-02-17T09:40:48.403Z,28.10
2023-02-17T09:43:19.809Z,35.43
2023-02-17T09:45:53.757Z,31.33
2023-02-17T09:48:30.491Z,28.77
2023-02-17T09:51:06.705Z,31.97
2023-02-17T09:53:42.359Z,30.40
2023-02-17T09:56:19.917Z,32.70
2023-02-17T09:58:54.028Z,31.43
2023-02-17T10:01:29.566Z,28.67
2023-02-17T10:04:08.217Z,27.43
2023-02-17T10:06:42.236Z,29.03
2023-02-17T10:09:18.247Z,29.03
2023-02-17T10:11:57.286Z,25.23
2023-02-17T10:14:34.209Z,36.93
2023-02-17T10:17:11.369Z,33.67
2023-02-17T10:19:53.239Z,26.57
2023-02-17T10:22:24.457Z,22.63
2023-02-17T10:24:53.615Z,27.67
2023-02-17T10:27:39.540Z,26.27
2023-02-17T10:30:32.216Z,28.33
2023-02-17T10:33:14.809Z,26.43
2023-02-17T10:35:53.170Z,28.47
2023-02-17T10:38:44.446Z,31.53
2023-02-17T10:41:21.255Z,27.77
2023-02-17T10:43:52.620Z,32.47
2023-02-17T10:46:31.546Z,26.10
2023-02-17T10:49:01.519Z,30.03
2023-02-17T10:51:33.045Z,29.17
2023-02-17T10:54:11.992Z,27.40
2023-02-17T10:56:48.161Z,30.10
2023-02-17T10:59:25.006Z,32.87
2023-02-17T11:01:59.460Z,48.10
2023-02-17T11:04:27.982Z,30.63
2023-02-17T11:07:10.289Z,19.30
2023-02-17T11:09:47.853Z,11.13
2023-02-17T11:12:23.883Z,13.80
2023-02-17T11:14:57.010Z,13.83
2023-02-17T11:17:32.213Z,9.47
2023-02-17T11:20:04.103Z,9.63
2023-02-17T11:22:40.936Z,11.00
2023-02-17T11:25:24.088Z,9.30
2023-02-17T11:27:54.427Z,8.60
2023-02-17T11:30:26.680Z,10.13
2023-02-17T11:32:56.832Z,21.50
2023-02-17T11:35:29.685Z,10.67
2023-02-17T11:38:03.801Z,9.20
2023-02-17T11:40:34.616Z,18.03
2023-02-17T11:43:05.924Z,13.53
2023-02-17T11:45:50.211Z,12.10
2023-02-17T11:48:58.429Z,9.67
2023-02-17T11:51:39.265Z,11.40
2023-02-17T11:54:22.267Z,9.70
2023-02-17T11:57:13.889Z,9.40
2023-02-17T12:00:05.739Z,9.50
2023-02-17T12:03:19.929Z,10.33
2023-02-17T12:06:05.866Z,9.27
2023-02-17T12:08:52.824Z,8.63
2023-02-17T12:11:36.448Z,9.53
2023-02-17T12:14:36.584Z,9.67
2023-02-17T12:17:17.731Z,8.50
2023-02-17T12:20:07.096Z,9.23
2023-02-17T12:22:50.111Z,10.67
2023-02-17T12:25:29.056Z,7.77
2023-02-17T12:28:29.456Z,6.87
2023-02-17T12:31:05.138Z,9.23
2023-02-17T12:33:51.604Z,7.23
2023-02-17T12:36:30.055Z,7.20
2023-02-17T12:39:04.101Z,8.67
2023-02-17T12:41:40.078Z,12.93
2023-02-17T12:44:15.510Z,9.60
2023-02-17T12:46:48.406Z,10.40
2023-02-17T12:49:24.948Z,9.60
2023-02-17T12:52:05.433Z,9.40
2023-02-17T12:54:41.832Z,7.77
2023-02-17T12:57:19.904Z,7.83
2023-02-17T12:59:51.684Z,10.10
2023-02-17T13:02:23.466Z,8.10
2023-02-17T13:04:54.832Z,8.40
2023-02-17T13:07:41.076Z,7.70
2023-02-17T13:10:28.684Z,7.07
2023-02-17T13:13:02.318Z,9.70
2023-02-17T13:15:36.943Z,10.67
2023-02-17T13:18:12.061Z,6.63
2023-02-17T13:20:53.456Z,10.43
2023-02-17T13:23:48.126Z,7.40
2023-02-17T13:26:29.458Z,8.57
2023-02-17T13:29:20.935Z,8.40
2023-02-17T13:31:54.078Z,6.93
2023-02-17T13:34:43.377Z,8.33
2023-02-17T13:37:26.579Z,9.63
2023-02-17T13:39:56.576Z,6.37
2023-02-17T13:42:40.302Z,8.13
2023-02-17T13:45:26.523Z,10.87
2023-02-17T13:47:58.387Z,7.90
2023-02-17T13:50:35.654Z,7.67
2023-02-17T13:53:22.325Z,7.00
2023-02-17T13:55:52.839Z,6.63
2023-02-17T13:58:28.381Z,7.70
2023-02-17T14:00:59.599Z,8.00
2023-02-17T14:03:31.737Z,6.83
2023-02-17T14:06:03.177Z,10.20
2023-02-17T14:08:38.247Z,9.17
2023-02-17T14:11:12.208Z,11.17
2023-02-17T14:13:44.564Z,8.80
2023-02-17T14:16:30.486Z,8.80
2023-02-17T14:19:09.033Z,9.73
2023-02-17T14:21:42.759Z,10.00
2023-02-17T14:24:27.124Z,9.30
2023-02-17T14:27:01.759Z,7.70
2023-02-17T14:29:42.879Z,8.23
2023-02-17T14:32:34.243Z,11.67
2023-02-17T14:35:22.820Z,10.93
2023-02-17T14:37:51.402Z,8.80
2023-02-17T14:40:24.297Z,9.27
2023-02-17T14:42:54.338Z,8.00
2023-02-17T14:45:23.158Z,10.70
2023-02-17T14:47:51.802Z,11.03
2023-02-17T14:50:20.672Z,8.00
2023-02-17T14:52:52.362Z,11.83
2023-02-17T14:55:33.785Z,13.23
2023-02-17T14:58:04.981Z,10.23
2023-02-17T15:00:33.586Z,11.77
2023-02-17T15:03:02.181Z,8.67
2023-02-17T15:05:30.956Z,11.67
2023-02-17T15:08:02.724Z,9.60
2023-02-17T15:10:31.569Z,11.87
2023-02-17T15:13:00.134Z,8.53
2023-02-17T15:15:30.013Z,23.23
2023-02-17T15:17:59.081Z,11.23
2023-02-17T15:20:27.889Z,9.10
2023-02-17T15:22:58.989Z,10.57
2023-02-17T15:25:27.777Z,9.43
2023-02-17T15:27:56.324Z,8.23
2023-02-17T15:30:28.370Z,8.10
2023-02-17T15:32:58.967Z,8.67
2023-02-17T15:35:29.549Z,8.50
2023-02-17T15:37:58.329Z,8.40
2023-02-17T15:40:29.426Z,10.93
2023-02-17T15:43:03.437Z,8.87
2023-02-17T15:45:32.292Z,8.00
2023-02-17T15:48:08.090Z,8.83
2023-02-17T15:50:36.609Z,10.07
2023-02-17T15:53:05.450Z,8.93
2023-02-17T15:55:35.245Z,8.30
2023-02-17T15:58:07.120Z,11.27
2023-02-17T16:00:37.149Z,7.67
2023-02-17T16:03:07.311Z,9.67
2023-02-17T16:05:36.065Z,9.03
2023-02-17T16:08:04.917Z,12.73
2023-02-17T16:10:34.615Z,11.67
2023-02-17T16:13:05.039Z,10.10
2023-02-17T16:15:35.567Z,7.60
2023-02-17T16:18:06.349Z,10.40
2023-02-17T16:20:35.241Z,9.90
2023-02-17T16:23:04.481Z,9.80
2023-02-17T16:25:33.097Z,18.30
2023-02-17T16:28:01.749Z,9.40
2023-02-17T16:30:34.494Z,13.73
2023-02-17T16:33:04.868Z,11.33
2023-02-17T16:35:34.924Z,13.23
2023-02-17T16:38:08.213Z,8.60
2023-02-17T16:40:47.075Z,10.73
2023-02-17T16:43:17.941Z,9.20
2023-02-17T16:45:54.124Z,8.57
2023-02-17T16:48:25.784Z,8.20
2023-02-17T16:50:56.019Z,11.37
2023-02-17T16:53:24.716Z,8.33
2023-02-17T16:55:55.397Z,12.87
2023-02-17T16:58:27.440Z,11.23
2023-02-17T17:00:57.185Z,9.10
2023-02-17T17:03:25.863Z,7.97
2023-02-17T17:05:58.992Z,9.47
2023-02-17T17:08:27.528Z,10.53
2023-02-17T17:10:56.105Z,10.37
2023-02-17T17:13:24.533Z,8.10
2023-02-17T17:15:53.128Z,10.73
2023-02-17T17:18:24.102Z,7.60
2023-02-17T17:20:53.296Z,8.67
2023-02-17T17:23:23.314Z,7.77
2023-02-17T17:25:51.936Z,6.70
2023-02-17T17:28:21.305Z,8.87
2023-02-17T17:30:50.510Z,8.37
2023-02-17T17:33:19.111Z,7.77
2023-02-17T17:35:47.683Z,7.40
2023-02-17T17:38:16.992Z,7.90
2023-02-17T17:40:56.614Z,7.47
2023-02-17T17:43:25.189Z,9.10
2023-02-17T17:45:53.947Z,10.73
2023-02-17T17:48:22.849Z,7.97
2023-02-17T17:50:51.589Z,11.90
2023-02-17T17:53:20.496Z,7.73
2023-02-17T17:55:49.225Z,8.30
2023-02-17T17:58:19.258Z,9.57
2023-02-17T18:00:48.355Z,7.47
2023-02-17T18:03:17.116Z,8.50
2023-02-17T18:05:46.004Z,8.80
2023-02-17T18:08:14.910Z,7.67
2023-02-17T18:10:44.265Z,8.63
2023-02-17T18:13:16.356Z,8.57
2023-02-17T18:15:47.359Z,8.20
2023-02-17T18:18:17.045Z,7.97
2023-02-17T18:20:46.117Z,12.57
2023-02-17T18:23:15.077Z,7.37
2023-02-17T18:25:44.236Z,7.67
2023-02-17T18:28:12.931Z,9.83
2023-02-17T18:30:41.814Z,7.40
2023-02-17T18:33:11.872Z,6.43
2023-02-17T18:35:40.377Z,7.60
2023-02-17T18:38:09.080Z,9.70
2023-02-17T18:40:40.607Z,8.33
2023-02-17T18:43:10.110Z,8.20
2023-02-17T18:45:38.808Z,9.90
2023-02-17T18:48:07.565Z,8.03
2023-02-17T18:50:37.717Z,8.77
2023-02-17T18:53:06.464Z,9.73
2023-02-17T18:55:38.723Z,8.30
2023-02-17T18:58:07.588Z,9.00
2023-02-17T19:00:36.371Z,6.80
2023-02-17T19:03:05.073Z,8.60
2023-02-17T19:05:33.821Z,8.57
2023-02-17T19:08:03.969Z,8.50
2023-02-17T19:10:32.707Z,7.60
2023-02-17T19:13:01.319Z,6.97
2023-02-17T19:15:30.201Z,7.00
2023-02-17T19:17:59.670Z,8.27
2023-02-17T19:20:29.435Z,7.63
2023-02-17T19:22:58.176Z,7.93
2023-02-17T19:25:28.348Z,7.63
2023-02-17T19:27:57.250Z,6.90
2023-02-17T19:30:25.890Z,8.13
2023-02-17T19:32:54.816Z,6.50
2023-02-17T19:35:23.473Z,6.60
2023-02-17T19:37:52.142Z,8.80
2023-02-17T19:40:21.477Z,8.63
2023-02-17T19:42:51.563Z,7.23
2023-02-17T19:45:20.136Z,7.67
2023-02-17T19:47:49.053Z,7.00
2023-02-17T19:50:18.102Z,7.10
2023-02-17T19:52:46.872Z,7.20
2023-02-17T19:55:15.883Z,7.43
2023-02-17T19:57:44.909Z,7.47
2023-02-17T20:00:16.130Z,6.37
2023-02-17T20:02:44.971Z,10.97
2023-02-17T20:05:13.752Z,6.80
2023-02-17T20:07:42.737Z,12.57
2023-02-17T20:10:13.790Z,6.97
2023-02-17T20:12:42.760Z,6.83
2023-02-17T20:15:11.562Z,8.23
2023-02-17T20:17:42.168Z,8.00
2023-02-17T20:20:12.706Z,7.90
2023-02-17T20:22:41.535Z,8.30
2023-02-17T20:25:10.531Z,7.73
2023-02-17T20:27:39.303Z,6.70
2023-02-17T20:30:09.634Z,8.53
2023-02-17T20:32:38.421Z,8.00
2023-02-17T20:35:09.588Z,8.90
2023-02-17T20:37:38.151Z,11.20
2023-02-17T20:40:08.538Z,8.50
2023-02-17T20:42:37.138Z,10.27
2023-02-17T20:45:06.489Z,7.67
2023-02-17T20:47:35.142Z,10.93
2023-02-17T20:50:08.996Z,7.57
2023-02-17T20:52:38.989Z,9.37
2023-02-17T20:55:08.639Z,10.97
2023-02-17T20:57:37.354Z,8.20
2023-02-17T21:00:08.466Z,9.80
2023-02-17T21:02:37.141Z,10.40
2023-02-17T21:05:06.500Z,9.40
2023-02-17T21:07:35.301Z,9.40
2023-02-17T21:10:06.984Z,9.83
2023-02-17T21:12:35.616Z,6.73
2023-02-17T21:15:04.147Z,7.93
2023-02-17T21:17:32.672Z,7.90
2023-02-17T21:20:01.573Z,8.40
2023-02-17T21:22:30.310Z,6.30
2023-02-17T21:25:00.088Z,9.07
2023-02-17T21:27:30.744Z,7.60
2023-02-17T21:29:59.842Z,8.37
2023-02-17T21:32:29.129Z,8.20
2023-02-17T21:34:58.083Z,7.20
2023-02-17T21:37:26.839Z,6.80
2023-02-17T21:39:55.639Z,7.73
2023-02-17T21:42:38.271Z,6.47
2023-02-17T21:45:09.290Z,7.50
2023-02-17T21:47:37.912Z,6.40
2023-02-17T21:50:08.364Z,7.33
2023-02-17T21:52:37.096Z,5.80
2023-02-17T21:55:06.554Z,7.60
2023-02-17T21:57:35.237Z,6.33
2023-02-17T22:00:04.892Z,8.47
2023-02-17T22:02:44.151Z,6.23
2023-02-17T22:05:13.272Z,6.30
2023-02-17T22:07:42.069Z,6.27
2023-02-17T22:10:11.784Z,6.70
2023-02-17T22:12:40.286Z,6.67
2023-02-17T22:15:11.633Z,5.90
2023-02-17T22:17:41.913Z,5.70
2023-02-17T22:20:11.400Z,5.90
2023-02-17T22:22:40.075Z,9.77
2023-02-17T22:25:09.167Z,9.13
2023-02-17T22:27:37.908Z,5.90
2023-02-17T22:30:08.964Z,6.57
2023-02-17T22:32:38.456Z,7.80
2023-02-17T22:35:08.946Z,6.23
2023-02-17T22:37:38.424Z,5.47
2023-02-17T22:40:09.505Z,6.27
2023-02-17T22:42:38.093Z,6.57
2023-02-17T22:45:07.808Z,5.57
2023-02-17T22:47:36.490Z,5.53
2023-02-17T22:50:06.441Z,6.30
2023-02-17T22:52:36.981Z,7.30
2023-02-17T22:55:06.366Z,6.40
2023-02-17T22:57:35.057Z,6.83
2023-02-17T23:00:03.864Z,6.03
2023-02-17T23:02:35.786Z,7.00
2023-02-17T23:05:04.706Z,5.57
2023-02-17T23:07:33.471Z,5.50
2023-02-17T23:10:04.163Z,5.40
2023-02-17T23:12:32.899Z,7.30
2023-02-17T23:15:02.501Z,6.90
2023-02-17T23:17:51.974Z,5.80
2023-02-17T23:20:20.942Z,5.80
2023-02-17T23:22:49.600Z,6.50
2023-02-17T23:25:19.713Z,5.80
2023-02-17T23:27:48.348Z,7.00
2023-02-17T23:30:21.801Z,6.20
2023-02-17T23:32:50.670Z,6.37
2023-02-17T23:35:19.697Z,6.73
2023-02-17T23:37:50.793Z,5.87
2023-02-17T23:40:21.452Z,7.43
2023-02-17T23:42:50.214Z,6.17
2023-02-17T23:45:19.119Z,6.83
2023-02-17T23:47:47.795Z,5.70
2023-02-17T23:50:17.174Z,6.40
2023-02-17T23:52:45.871Z,6.00
2023-02-17T23:55:14.531Z,6.23
2023-02-17T23:57:44.648Z,6.33
